Airport ID:KJWN
Update Time (UTC):22/09/2020 11:49
Wind Speed (Knots):1
Wind Direction (Magnetic):310
Temperature (°C):10
Dew Point (°C):10
Humidity (%):97
Altimeter (inHg):30.27
Density Altitude (Feet):
Visibility:10+
Clouds (Hundreds of feet):CLR
Present Weather:
METAR:METAR KJWN 221145Z AUTO 00000KT 10SM CLR 10/10 A3026 RMK A01

The data displayed is for advisory purposes only and is not to be used for flight planning or operations.